Virginia Peak (RGX), Nevada Weather observations

 Day   Time    Ave.   Ave.  Ave.  Vector  Max.   Total    Solar  
  of    of     Air    Rel.  Wind   Wind   Wind  Precip.   Rad.   
Year   Day     Temp.  Hum.  Speed  Dir.   Gust                   
2016   (PST)    F      %     mph   deg.    mph    in.     W/m2  
----------------------------------------------------------------
 178   14:15   71.0    10   13.0   211    21.0   999.00     999
 178   14:30   74.0    10   18.0   268    18.0   999.00     999
 178   14:45   73.0    12   23.0   266    34.0   999.00     999
 178   15:00   72.0     8   25.0   267    33.0   999.00     999
 178   15:15   72.0     9   31.0   247    36.0   999.00     999
 178   15:30   73.0    10   33.0   236    36.0   999.00     999
 178   15:45   73.0     9   33.0   232    38.0   999.00     999
 178   16:00   74.0     9   34.0   226    37.0   999.00     999
 178   16:15   73.0    10   23.0   262    39.0   999.00     999
 178   16:30   73.0    10   24.0   245    31.0   999.00     999
 178   16:45   74.0    11   23.0   227    33.0   999.00     999
 178   17:00   74.0    11   19.0   255    33.0   999.00     999
 178   17:15   74.0    11   15.0   250    25.0   999.00     999
 178   17:30   73.0    12   27.0   251    31.0   999.00     999
 178   17:45   72.0    13   29.0   260    34.0   999.00     999
 178   18:00   72.0    14   22.0   279    32.0   999.00     999
 178   18:15   71.0    14   24.0   276    33.0   999.00     999
 178   18:30   71.0    15   24.0   260    36.0   999.00     999
 178   18:45   70.0    15   30.0   274    32.0   999.00     999
 178   19:00   69.0    16   27.0   267    32.0   999.00     999
 178   19:15   69.0    17   25.0   264    33.0   999.00     999
 178   19:30   68.0    17   29.0   266    34.0   999.00     999
 178   19:45   67.0    17   30.0   273    32.0   999.00     999
 178   20:00   66.0     0   30.0   269    33.0   999.00     999
 178   20:15   65.0    17   30.0   262    34.0   999.00     999
 178   20:30   64.0    19   35.0   269    36.0   999.00     999
 178   20:45   64.0    19   33.0   264    37.0   999.00     999
 178   21:00   63.0    19   30.0   258    37.0   999.00     999
 178   21:15   62.0    20   30.0   261    36.0   999.00     999
 178   21:30   63.0    19   27.0   258    32.0   999.00     999
 178   21:45  999.0   999  999.0   999   999.0   999.00     999
 178   22:00  999.0   999  999.0   999   999.0   999.00     999
 178   22:15  999.0   999  999.0   999   999.0   999.00     999
 178   22:30  999.0   999  999.0   999   999.0   999.00     999
 178   22:45  999.0   999  999.0   999   999.0   999.00     999
 178   23:00  999.0   999  999.0   999   999.0   999.00     999
 178   23:15  999.0   999  999.0   999   999.0   999.00     999
 178   23:30  999.0   999  999.0   999   999.0   999.00     999
 178   23:45  999.0   999  999.0   999   999.0   999.00     999
 179    0:00   60.0    28   21.0   277    22.0   999.00     999
 179    0:15   60.0    28   22.0   275    22.0   999.00     999
 179    0:30   60.0    29   18.0   274    21.0   999.00     999
 179    0:45   60.0    29   19.0   278    21.0   999.00     999
 179    1:00   60.0    26   14.0   278    19.0   999.00     999
 179    1:15   60.0    25   15.0     0    16.0   999.00     999
 179    1:30   61.0    22   12.0   298    16.0   999.00     999
 179    1:45   62.0    16   10.0   283    14.0   999.00     999
 179    2:00   62.0    19   10.0   292    11.0   999.00     999
 179    2:15   61.0    20   11.0   293    12.0   999.00     999
 179    2:30   61.0    21   12.0   290    14.0   999.00     999
 179    2:45   60.0    23   13.0   302    14.0   999.00     999
 179    3:00   60.0    23   13.0     0    14.0   999.00     999
 179    3:15   60.0    22   11.0   308    13.0   999.00     999
 179    3:30   61.0    21    5.0   318    11.0   999.00     999
 179    3:45   62.0    19    5.0   298     6.0   999.00     999
 179    4:00   62.0    19    5.0   293     6.0   999.00     999
 179    4:15   61.0    21    5.0   274     6.0   999.00     999
 179    4:30   61.0    22    5.0   293     6.0   999.00     999
 179    4:45   61.0    21    4.0   288     5.0   999.00     999
 179    5:00   61.0    17    4.0   279     5.0   999.00     999
 179    5:15   61.0    21    1.0   292     4.0   999.00     999
 179    5:30   60.0    22    2.0   290     3.0   999.00     999
 179    5:45   61.0    22    3.0   291     4.0   999.00     999
 179    6:00   61.0    21    1.0   295     3.0   999.00     999
 179    6:15   62.0    18    0.0    62     2.0   999.00     999
 179    6:30   64.0    19    1.0    74     1.0   999.00     999
 179    6:45   65.0    20    0.0    80     2.0   999.00     999
 179    7:00   65.0    18    1.0   287     3.0   999.00     999
 179    7:15   -0.0     0    2.0   285     3.0   999.00     999
 179    7:30   65.0    18    2.0   280     3.0   999.00     999
 179    7:45   67.0    14    0.0   278     2.0   999.00     999
 179    8:00   68.0    12    4.0   147     6.0   999.00     999
 179    8:15   68.0    11    3.0   179     4.0   999.00     999
 179    8:30   68.0    11    2.0   145     5.0   999.00     999
 179    8:45   69.0    17    4.0   172     5.0   999.00     999
 179    9:00   69.0    13    2.0   238     6.0   999.00     999
 179    9:15   69.0    17    5.0   181     6.0   999.00     999
 179    9:30   70.0    13    2.0   223     6.0   999.00     999
 179    9:45   71.0    15    4.0   134     5.0   999.00     999
 179   10:00   70.0    20    5.0   172     8.0   999.00     999
 179   10:15   70.0    15    1.0   260     7.0   999.00     999
 179   10:30   71.0    20    4.0   144     9.0   999.00     999
 179   10:45   72.0    16    2.0   250     7.0   999.00     999
 179   11:00   72.0    19   11.0   170    11.0   999.00     999
 179   11:15   69.0    18    8.0   253    12.0   999.00     999
 179   11:30   69.0    16    7.0   212    12.0   999.00     999
 179   11:45   71.0    16    8.0   191    11.0   999.00     999
 179   12:00   70.0    14   14.0   247    17.0   999.00     999
 179   12:15   72.0    14    6.0   155    17.0   999.00     999
 179   12:30   72.0    15   12.0   246    14.0   999.00     999
 179   12:45   70.0     0   17.0     0    21.0   999.00     999
 179   13:00   70.0    10   13.0   218    21.0   999.00     999
 179   13:15   73.0     9    9.0   200    16.0   999.00     999
 179   13:30   72.0     9    9.0   220    19.0   999.00     999
 179   13:45   73.0     7   10.0   218    19.0   999.00     999
 179   14:00   72.0     7   14.0   230    22.0   999.00     999

Return to Virginia Peak (RGX) graphs page.


Western Regional Climate Center,wrcc@dri.edu